METAR AND TAF INFORMATION
METAR FOR DNMA
ADDS - METARS form results

(1134 UTC 23 May 2019)
Data provider http://aviationweather.gov/metar/data/
 
Forecast for: DNMA (MAIDUGURI , NG)
Text: TAF DNMA 230350Z 2306/2412 24010KT CAVOK
Forecast period: 0600 UTC 23 May 2019 to 1200 UTC 24 May 2019
Forecast type: FROM: standard forecast or significant change
Winds: from the WSW (240 degrees) at 12 MPH (10 knots; 5.1 m/s)
Visibility: 6 or more miles 10+ km)
Ceiling: unknown
Clouds: missing
Weather: NSW  (no significant weather)
Text: PROB30
Forecast period: 1400 to 2000 UTC 23 May 2019
Forecast type: TEMPORARY: The following changes expected for less than half the time period
Visibility: missing
Ceiling: at least 12,000 feet AGL
Clouds: scattered clouds at 1500 feet AGL
few clouds at 2100 feet AGL
Weather: TS  (thunderstorm)

AIRPORT MAP

RUNWAY INFORMATION
Runway 05 Runway length 9846 ft Runway width 197 ft
Runway elevation 1097 ft Runway displaced threshold 0 ft Runway heading 47
Runway 23 Runway length 9846 ft Runway width 197 ft
Runway elevation 1086 ft Runway displaced threshold 0 ft Runway heading 227

AIRPORT FREQUENCIES
Type TWR Name TWR Frequency 123.1 MHZ

AIRPORT NEAR NAVIGATION AIDS
Type NDB Name Maiduguri Frequency 332 KHZ
Type VOR-DME Name Maiduguri Frequency 113700 KHZ